LPMALPPS

Guest
Details From LPMA - Madeira
To LPPS - Porto Santo
Flight Number -
Tags Routegen Generated
Created
Modified
Stats Distance 31 nm / 58 km
Max Altitude 100 ft / 30 m
Waypoints 5
Social Downloads 11
Likes 0
Share VATSIM

Download

Looking for another format? Having issues loading an existing format? Contact us
Advertisement - Login to hide

Notes

Departing runway 4 LPMA. Arriving runway 17 LPPS.

Route

LPMA +32.76_-016.71 +32.87_-016.53 +32.99_-016.35 LPPS

ID Type Via Altitude Latitude Longitude Leg Dist Tot Dist Heading (true) Name
O LPMA APT - 0 ft / 0 m 32.70641˚ -16.76481˚ - 0 nm - -
+32.76_-016.71 LATLON - 100 ft / 30 m 32.75933˚ -16.70613˚ 4 nm 4 nm 43° / 43° -
+32.87_-016.53 LATLON - 100 ft / 30 m 32.87343˚ -16.52635˚ 11 nm 15 nm 53° / 53° -
+32.99_-016.35 LATLON - 100 ft / 30 m 32.98754˚ -16.34658˚ 11 nm 27 nm 53° / 53° -
O LPPS APT - 0 ft / 0 m 33.05987˚ -16.34941˚ 4 nm 31 nm 358° / 358° -

Altitude Profile

Advertisement - Login to hide

LPMA

Details ICAO LPMA (FNC)
Name Madeira
Region Portugal
Timezone Atlantic/Madeira (UTC+0.0)
Stats Elevation 192 ft / 59 m (AMSL)
Location 32.697704° -16.774449°
Runways 1
Magnetic Variation 4.983° W

METAR

LPMA 120030Z 02015G30KT 340V050 9999 SCT014 FEW016TCU 17/09 Q1019

Decode

TAF

TAF LPMA 112300Z 1200/1224 01015G25KT 9999 SCT015 TEMPO 1200/1224 01020G35KT SCT012 FEW018TCU PROB40 TEMPO 1200/1224 01015KT

Decode

Departure Runways

ID Width Length Bearing (true) Bearing (mag) Surface Threshold Offset Overrun Length
05 141 ft / 43 m 8,683 ft / 2,647 m 42.98° 47.96° Asphalt 472 ft / 144 m 0 ft / 0 m
23 141 ft / 43 m 8,683 ft / 2,647 m 222.99° 227.97° Asphalt 466 ft / 142 m 0 ft / 0 m

LPPS

Details ICAO LPPS (PXO)
Name Porto Santo
Region Portugal
Timezone Atlantic/Madeira (UTC+0.0)
Stats Elevation 340 ft / 104 m (AMSL)
Location 33.073413° -16.349946°
Runways 1
Magnetic Variation 4.820° W

METAR

LPPS 120030Z 02013KT 9999 SCT014 FEW016TCU 17/10 Q1019

Decode

TAF

TAF LPPS 112300Z 1200/1306 02015KT 9999 SCT015 TEMPO 1200/1306 02020G30KT SCT012 FEW016TCU

Decode

Destination Runways

ID Width Length Bearing (true) Bearing (mag) Surface Threshold Offset Overrun Length
18 148 ft / 45 m 9,890 ft / 3,014 m 178.11° 182.93° Asphalt 0 ft / 0 m 0 ft / 0 m
36 148 ft / 45 m 9,890 ft / 3,014 m 358.12° 2.94° Asphalt 0 ft / 0 m 499 ft / 152 m

Popular Alternatives